Time;durP1;ratioP1;P1;durP2;ratioP2;P2;SDS_P1;SDS_P2;PMS_P1;PMS_P2;Temp;Humidity;BMP_temperature;BMP_pressure;BME280_temperature;BME280_humidity;BME280_pressure;Samples;Min_cycle;Max_cycle;Signal;HPM_P1;HPM_P2
2021/03/30 04:58:57;;;;;;;;;;;;;;;3.93;88.66;99159.28;1770135;77;20556;-65
2021/03/30 05:01:25;;;;;;;;;;;;;;;3.99;89.30;99158.28;1773808;79;20546;-65
2021/03/30 05:03:54;;;;;;;;;;;;;;;4.05;89.05;99161.02;1775135;79;20538;-65
2021/03/30 05:06:22;;;;;;;;;;;;;;;4.11;88.22;99159.53;1768661;80;21929;-65
2021/03/30 05:08:50;;;;;;;;;;;;;;;4.13;88.65;99166.20;1753606;78;20523;-64
2021/03/30 05:11:20;;;;;;;;;;;;;;;4.28;89.43;99168.41;1768261;79;20401;-61
2021/03/30 05:13:48;;;;;;;;;;;;;;;4.44;88.81;99166.23;1764304;79;20547;-62
2021/03/30 05:16:16;;;;;;;;;;;;;;;4.56;87.71;99173.15;1768802;79;20699;-65
2021/03/30 05:18:44;;;;;;;;;;;;;;;4.56;86.60;99169.24;1768650;80;22290;-64
2021/03/30 05:21:12;;;;;;;;;;;;;;;4.61;86.23;99170.34;1763264;79;20492;-66
2021/03/30 05:23:40;;;;;;;;;;;;;;;4.67;85.36;99162.36;1769936;80;20124;-67
2021/03/30 05:26:08;;;;;;;;;;;;;;;4.69;84.89;99173.39;1774439;79;20505;-70
2021/03/30 05:28:36;;;;;;;;;;;;;;;4.69;84.96;99171.60;1775873;78;20620;-69
2021/03/30 05:31:04;;;;;;;;;;;;;;;4.75;85.19;99173.22;1746292;80;20900;-69
2021/03/30 05:33:32;;;;;;;;;;;;;;;4.81;84.07;99177.73;1741836;79;20486;-69
2021/03/30 05:36:00;;;;;;;;;;;;;;;4.87;83.77;99171.83;1727239;82;20513;-67
2021/03/30 05:38:28;;;;;;;;;;;;;;;4.94;83.89;99174.87;1705650;81;20976;-66
2021/03/30 05:40:56;;;;;;;;;;;;;;;5.03;83.17;99171.72;1728258;81;20602;-67
2021/03/30 05:43:24;;;;;;;;;;;;;;;5.14;82.39;99176.50;1725474;81;20577;-67
2021/03/30 05:45:53;;;;;;;;;;;;;;;5.24;81.97;99180.19;1727111;81;20573;-79
2021/03/30 05:48:21;;;;;;;;;;;;;;;5.33;81.61;99176.01;1744093;80;20386;-70
2021/03/30 05:50:50;;;;;;;;;;;;;;;5.39;81.83;99168.81;1733670;81;20596;-66
2021/03/30 05:53:18;;;;;;;;;;;;;;;5.48;81.93;99172.13;1732065;80;20716;-66
2021/03/30 05:55:48;;;;;;;;;;;;;;;5.56;81.41;99169.45;1705090;83;21786;-68
2021/03/30 05:58:16;;;;;;;;;;;;;;;5.63;80.69;99169.05;1739320;81;20334;-66
2021/03/30 06:00:45;;;;;;;;;;;;;;;5.68;80.13;99176.37;1727549;82;20156;-66
2021/03/30 06:03:15;;;;;;;;;;;;;;;5.75;79.69;99174.17;1740219;81;20491;-64
2021/03/30 06:05:43;;;;;;;;;;;;;;;5.84;78.87;99177.48;1725171;81;20843;-67
2021/03/30 06:08:13;;;;;;;;;;;;;;;5.90;78.31;99182.03;1722907;82;21961;-70
2021/03/30 06:10:43;;;;;;;;;;;;;;;5.91;79.17;99178.94;1725065;81;20481;-69
2021/03/30 06:13:12;;;;;;;;;;;;;;;5.96;79.50;99177.40;1752073;81;20339;-67
2021/03/30 06:15:40;;;;;;;;;;;;;;;6.06;79.32;99172.70;1723146;81;20480;-64
2021/03/30 06:18:17;;;;;;;;;;;;;;;6.16;78.86;99173.73;1726819;82;20592;-64
2021/03/30 06:20:45;;;;;;;;;;;;;;;6.26;78.81;99171.67;1729048;81;21775;-62
2021/03/30 06:23:13;;;;;;;;;;;;;;;6.41;78.28;99178.17;1730549;80;20487;-65
2021/03/30 06:25:49;;;;;;;;;;;;;;;6.56;77.23;99180.23;1707712;82;20527;-65
2021/03/30 06:28:22;;;;;;;;;;;;;;;6.72;75.72;99183.13;1724422;81;20653;-67
2021/03/30 06:31:00;;;;;;;;;;;;;;;6.87;75.05;99182.09;1727016;81;20729;-63
2021/03/30 06:33:29;;;;;;;;;;;;;;;7.01;73.99;99173.88;1728951;81;21869;-66
2021/03/30 06:36:18;;;;;;;;;;;;;;;7.14;73.31;99170.56;1728257;81;20490;-67
2021/03/30 06:38:48;;;;;;;;;;;;;;;7.24;72.53;99165.84;1720113;81;20555;-67
2021/03/30 06:41:38;;;;;;;;;;;;;;;7.38;72.46;99168.38;1725472;81;20674;-65
2021/03/30 06:47:01;;;;;;;;;;;;;;;7.67;71.65;99175.23;1723525;81;21719;-69
2021/03/30 06:49:30;;;;;;;;;;;;;;;7.79;70.78;99175.49;1727128;81;20475;-67
2021/03/30 06:51:59;;;;;;;;;;;;;;;7.92;69.72;99176.09;1729004;81;20475;-68
2021/03/30 06:54:27;;;;;;;;;;;;;;;8.02;69.65;99172.61;1724442;81;20673;-66
2021/03/30 06:56:57;;;;;;;;;;;;;;;8.07;69.24;99170.22;1726318;81;20611;-64
2021/03/30 06:59:25;;;;;;;;;;;;;;;8.12;69.09;99175.20;1729575;80;22038;-72
2021/03/30 07:01:55;;;;;;;;;;;;;;;8.25;68.53;99170.52;1738917;80;20735;-69
2021/03/30 07:04:23;;;;;;;;;;;;;;;8.38;68.53;99167.17;1717864;81;20408;-69
2021/03/30 07:06:54;;;;;;;;;;;;;;;8.50;68.37;99159.08;1706106;83;20704;-71
2021/03/30 07:09:22;;;;;;;;;;;;;;;8.64;67.89;99155.48;1718583;82;20636;-69
2021/03/30 07:11:50;;;;;;;;;;;;;;;8.76;67.57;99157.02;1715755;82;20757;-69
2021/03/30 07:14:21;;;;;;;;;;;;;;;8.88;67.34;99158.04;1702739;82;20515;-69
2021/03/30 07:16:54;;;;;;;;;;;;;;;8.98;66.98;99155.34;1702598;82;20217;-66
2021/03/30 07:19:24;;;;;;;;;;;;;;;9.13;67.65;99154.35;1708256;82;21132;-67
2021/03/30 07:22:07;;;;;;;;;;;;;;;9.30;66.80;99157.67;1716089;81;20611;-64
2021/03/30 07:24:41;;;;;;;;;;;;;;;9.46;66.74;99160.40;1703587;82;21884;-67
2021/03/30 07:27:14;;;;;;;;;;;;;;;9.58;66.28;99155.36;1704725;82;20593;-66
2021/03/30 07:29:45;;;;;;;;;;;;;;;9.71;65.92;99154.83;1701977;82;20219;-65
2021/03/30 07:32:21;;;;;;;;;;;;;;;9.81;64.53;99159.64;1717213;82;20920;-66
2021/03/30 07:35:01;;;;;;;;;;;;;;;9.89;63.84;99157.30;1719915;82;20554;-66
2021/03/30 07:37:33;;;;;;;;;;;;;;;9.92;63.65;99159.53;1708655;81;21955;-66
2021/03/30 07:40:01;;;;;;;;;;;;;;;9.94;63.78;99156.20;1729399;82;20567;-68
2021/03/30 07:42:29;;;;;;;;;;;;;;;10.03;63.87;99164.95;1733780;82;20513;-67
2021/03/30 07:44:57;;;;;;;;;;;;;;;10.12;63.60;99171.59;1717546;81;20505;-69
2021/03/30 07:47:41;;;;;;;;;;;;;;;10.18;63.70;99173.92;1709907;82;20586;-66
2021/03/30 07:50:10;;;;;;;;;;;;;;;10.23;63.10;99168.84;1725789;81;21908;-72
2021/03/30 07:52:40;;;;;;;;;;;;;;;10.25;62.02;99166.02;1730356;80;20148;-67
2021/03/30 07:55:14;;;;;;;;;;;;;;;10.26;61.88;99167.12;1711364;82;20134;-70
2021/03/30 07:58:07;;;;;;;;;;;;;;;10.33;61.80;99166.59;1738538;80;20610;-67
2021/03/30 08:00:42;;;;;;;;;;;;;;;10.45;60.96;99168.05;1727705;80;20627;-67
2021/03/30 08:03:19;;;;;;;;;;;;;;;10.55;60.12;99167.11;1740163;80;22073;-66
2021/03/30 08:06:21;;;;;;;;;;;;;;;10.62;60.01;99163.94;1732939;80;20462;-67
2021/03/30 08:08:56;;;;;;;;;;;;;;;10.71;60.24;99166.62;1757310;79;20416;-65
2021/03/30 08:11:44;;;;;;;;;;;;;;;10.80;60.03;99162.74;1752251;80;21196;-63
2021/03/30 08:14:22;;;;;;;;;;;;;;;10.89;59.98;99173.28;1746724;80;20479;-67
2021/03/30 08:16:55;;;;;;;;;;;;;;;11.01;60.17;99175.26;1736804;80;20909;-66
2021/03/30 08:19:26;;;;;;;;;;;;;;;11.12;59.71;99170.11;1702581;82;20453;-66
2021/03/30 08:21:56;;;;;;;;;;;;;;;11.24;59.82;99179.42;1743033;80;20491;-67
2021/03/30 08:24:47;;;;;;;;;;;;;;;11.38;59.37;99176.21;1711797;81;20707;-64
2021/03/30 08:27:36;;;;;;;;;;;;;;;11.49;58.55;99173.67;1709965;81;20489;-70
2021/03/30 08:30:18;;;;;;;;;;;;;;;11.60;58.54;99172.14;1707775;81;21153;-72
2021/03/30 08:32:48;;;;;;;;;;;;;;;11.72;58.24;99166.48;1708612;82;20428;-67
2021/03/30 08:35:32;;;;;;;;;;;;;;;11.80;57.09;99168.06;1716010;81;20132;-68
2021/03/30 08:38:00;;;;;;;;;;;;;;;11.88;55.31;99170.41;1709032;82;20586;-71
2021/03/30 08:40:38;;;;;;;;;;;;;;;11.94;52.49;99168.22;1707199;82;21183;-70
2021/03/30 08:43:19;;;;;;;;;;;;;;;12.01;52.04;99161.86;1709191;81;20687;-71
2021/03/30 08:46:11;;;;;;;;;;;;;;;12.13;54.12;99161.41;1712256;81;20381;-63
2021/03/30 08:48:51;;;;;;;;;;;;;;;12.25;54.28;99157.52;1723043;81;20305;-71
2021/03/30 08:51:22;;;;;;;;;;;;;;;12.38;54.20;99152.11;1708163;82;20557;-68
2021/03/30 08:53:53;;;;;;;;;;;;;;;12.51;53.47;99155.89;1715904;81;20713;-64
2021/03/30 08:56:28;;;;;;;;;;;;;;;12.60;53.84;99154.27;1708575;81;21822;-67
2021/03/30 08:58:57;;;;;;;;;;;;;;;12.66;53.65;99146.27;1737771;80;20221;-66
2021/03/30 09:01:25;;;;;;;;;;;;;;;12.77;53.92;99150.77;1729986;80;20561;-65
2021/03/30 09:03:55;;;;;;;;;;;;;;;12.85;52.59;99145.69;1725527;81;21097;-62
2021/03/30 09:06:35;;;;;;;;;;;;;;;12.87;51.83;99150.23;1724258;81;20753;-64
2021/03/30 09:09:22;;;;;;;;;;;;;;;12.82;51.94;99149.56;1715323;82;20788;-63
2021/03/30 09:11:50;;;;;;;;;;;;;;;12.84;52.63;99151.48;1728969;80;20582;-68
2021/03/30 09:14:20;;;;;;;;;;;;;;;12.91;51.63;99147.42;1720930;81;20491;-64
2021/03/30 09:16:52;;;;;;;;;;;;;;;12.95;52.20;99147.27;1725633;81;20934;-66
2021/03/30 09:19:35;;;;;;;;;;;;;;;12.97;50.64;99149.15;1741661;81;20560;-66
2021/03/30 09:22:03;;;;;;;;;;;;;;;12.93;50.79;99142.73;1753768;80;21996;-64
2021/03/30 09:27:27;;;;;;;;;;;;;;;13.03;51.23;99141.67;1725464;80;20502;-66
2021/03/30 09:29:56;;;;;;;;;;;;;;;13.07;51.86;99146.78;1720457;80;20592;-67
2021/03/30 09:32:26;;;;;;;;;;;;;;;13.14;50.54;99150.66;1729505;80;20586;-66
2021/03/30 09:35:04;;;;;;;;;;;;;;;13.11;49.93;99149.78;1726146;80;21917;-68
2021/03/30 09:37:43;;;;;;;;;;;;;;;13.11;49.83;99147.14;1739204;80;20488;-68
2021/03/30 09:40:13;;;;;;;;;;;;;;;13.16;48.81;99151.25;1735505;80;20139;-66
2021/03/30 09:42:43;;;;;;;;;;;;;;;13.14;48.80;99150.66;1733932;81;20497;-68
2021/03/30 09:45:12;;;;;;;;;;;;;;;13.20;49.33;99157.67;1743829;80;20768;-68
2021/03/30 09:47:40;;;;;;;;;;;;;;;13.36;50.36;99155.69;1722254;80;22043;-67
2021/03/30 09:50:09;;;;;;;;;;;;;;;13.48;49.11;99154.37;1742847;80;20489;-66
2021/03/30 09:52:37;;;;;;;;;;;;;;;13.51;47.83;99146.00;1695905;83;20402;-65
2021/03/30 09:55:07;;;;;;;;;;;;;;;13.50;47.82;99148.35;1719535;80;20615;-66
2021/03/30 09:57:35;;;;;;;;;;;;;;;13.60;49.38;99142.80;1721865;81;20510;-66
2021/03/30 10:00:04;;;;;;;;;;;;;;;13.75;49.10;99142.34;1695871;82;21939;-67
2021/03/30 10:02:36;;;;;;;;;;;;;;;13.85;48.31;99139.09;1702132;82;20455;-66
2021/03/30 10:05:06;;;;;;;;;;;;;;;13.91;47.71;99138.97;1682200;83;20399;-62
2021/03/30 10:07:36;;;;;;;;;;;;;;;13.96;46.12;99135.64;1706387;81;20584;-60
2021/03/30 10:10:11;;;;;;;;;;;;;;;13.95;46.79;99140.13;1711756;81;20239;-65
2021/03/30 10:12:55;;;;;;;;;;;;;;;14.01;48.02;99135.73;1720817;82;20806;-62
2021/03/30 10:15:40;;;;;;;;;;;;;;;14.12;48.30;99137.55;1717947;81;20172;-69
2021/03/30 10:18:16;;;;;;;;;;;;;;;14.14;48.19;99135.48;1707207;82;20592;-69
2021/03/30 10:20:47;;;;;;;;;;;;;;;14.18;47.79;99135.31;1712643;81;20124;-71
2021/03/30 10:23:16;;;;;;;;;;;;;;;14.28;47.80;99131.53;1712865;82;20605;-69
2021/03/30 10:25:44;;;;;;;;;;;;;;;14.32;46.86;99133.20;1706784;82;21905;-64
2021/03/30 10:28:14;;;;;;;;;;;;;;;14.31;47.41;99129.75;1721142;81;20710;-68
2021/03/30 10:30:45;;;;;;;;;;;;;;;14.33;47.61;99126.88;1720957;80;20581;-68
2021/03/30 10:33:19;;;;;;;;;;;;;;;14.34;46.98;99122.66;1706482;82;20562;-70
2021/03/30 10:35:51;;;;;;;;;;;;;;;14.35;46.93;99123.45;1708668;82;20821;-68
2021/03/30 10:38:21;;;;;;;;;;;;;;;14.30;47.09;99118.88;1728887;81;21953;-67
2021/03/30 10:40:49;;;;;;;;;;;;;;;14.28;47.87;99116.98;1719811;81;20589;-67
2021/03/30 10:43:22;;;;;;;;;;;;;;;14.27;47.80;99116.70;1714007;81;20488;-65
2021/03/30 10:45:52;;;;;;;;;;;;;;;14.30;47.98;99115.44;1712372;81;20478;-70
2021/03/30 10:48:20;;;;;;;;;;;;;;;14.38;47.57;99121.71;1718741;81;20592;-68
2021/03/30 10:50:48;;;;;;;;;;;;;;;14.47;47.97;99112.89;1716806;81;21914;-69
2021/03/30 10:53:16;;;;;;;;;;;;;;;14.52;46.67;99109.80;1710292;82;20394;-66
2021/03/30 10:55:44;;;;;;;;;;;;;;;14.49;47.34;99116.87;1702001;82;20488;-69
2021/03/30 10:58:14;;;;;;;;;;;;;;;14.50;46.61;99111.07;1691854;82;20573;-69
2021/03/30 11:00:42;;;;;;;;;;;;;;;14.54;46.51;99107.73;1709169;83;20604;-68
2021/03/30 11:03:12;;;;;;;;;;;;;;;14.59;47.12;99105.17;1706041;82;21215;-63
2021/03/30 11:05:41;;;;;;;;;;;;;;;14.67;47.50;99104.80;1766667;79;21112;-67
2021/03/30 11:08:11;;;;;;;;;;;;;;;14.76;47.42;99109.99;1769336;79;20658;-68
2021/03/30 11:10:39;;;;;;;;;;;;;;;14.91;48.36;99107.32;1771281;79;20398;-71
2021/03/30 11:13:07;;;;;;;;;;;;;;;15.07;47.75;99105.98;1774388;79;20487;-68
2021/03/30 11:15:35;;;;;;;;;;;;;;;15.17;46.05;99100.06;1772596;79;21898;-67
2021/03/30 11:18:03;;;;;;;;;;;;;;;15.16;45.76;99097.12;1771337;79;20493;-70
2021/03/30 11:20:31;;;;;;;;;;;;;;;15.09;46.11;99099.94;1771485;80;20600;-71
2021/03/30 11:22:58;;;;;;;;;;;;;;;15.16;45.40;99091.31;1772554;79;20493;-68
2021/03/30 11:25:26;;;;;;;;;;;;;;;15.30;45.81;99089.66;1769337;79;21155;-70
2021/03/30 11:27:58;;;;;;;;;;;;;;;15.41;44.85;99088.77;1771028;79;21918;-71
2021/03/30 11:30:34;;;;;;;;;;;;;;;15.51;44.99;99083.60;1773161;79;20969;-71
2021/03/30 11:33:09;;;;;;;;;;;;;;;15.60;44.93;99080.85;1770433;78;20403;-68
2021/03/30 11:35:44;;;;;;;;;;;;;;;15.67;44.65;99080.67;1771014;78;20558;-63
2021/03/30 11:38:09;;;;;;;;;;;;;;;15.68;44.71;99082.28;1776870;79;20622;-64
2021/03/30 11:40:37;;;;;;;;;;;;;;;15.66;43.64;99075.89;1765461;79;20743;-64
2021/03/30 11:43:07;;;;;;;;;;;;;;;15.59;43.78;99076.59;1772411;79;20542;-66
2021/03/30 11:45:36;;;;;;;;;;;;;;;15.58;44.89;99076.31;1773563;79;20405;-63
2021/03/30 11:48:05;;;;;;;;;;;;;;;15.60;43.86;99072.90;1782930;78;20702;-63
2021/03/30 11:50:33;;;;;;;;;;;;;;;15.59;44.63;99072.62;1776490;78;20488;-64
2021/03/30 11:53:01;;;;;;;;;;;;;;;15.62;45.15;99069.49;1766881;79;20766;-62
2021/03/30 11:55:29;;;;;;;;;;;;;;;15.69;45.54;99064.02;1765261;79;20493;-68
2021/03/30 11:57:57;;;;;;;;;;;;;;;15.77;44.47;99056.97;1764126;79;20475;-68
2021/03/30 12:00:25;;;;;;;;;;;;;;;15.73;44.49;99061.94;1775054;78;20490;-71
2021/03/30 12:02:55;;;;;;;;;;;;;;;15.69;45.26;99062.16;1731010;81;20488;-68
2021/03/30 12:05:22;;;;;;;;;;;;;;;15.66;45.19;99053.89;1729404;80;20771;-62
2021/03/30 12:07:53;;;;;;;;;;;;;;;15.65;45.56;99054.41;1728571;81;20610;-69
2021/03/30 12:10:22;;;;;;;;;;;;;;;15.68;45.51;99043.85;1728104;82;20246;-64
2021/03/30 12:12:50;;;;;;;;;;;;;;;15.68;44.35;99046.50;1726730;81;20488;-68
2021/03/30 12:15:18;;;;;;;;;;;;;;;15.62;44.46;99048.29;1726326;81;20558;-65
2021/03/30 12:17:46;;;;;;;;;;;;;;;15.63;44.96;99044.59;1695194;82;21975;-67
2021/03/30 12:20:15;;;;;;;;;;;;;;;15.65;44.83;99041.16;1695253;83;20606;-67
2021/03/30 12:22:44;;;;;;;;;;;;;;;15.67;45.60;99042.24;1701790;82;20500;-67
2021/03/30 12:25:12;;;;;;;;;;;;;;;15.68;45.20;99040.68;1702364;83;20653;-67
2021/03/30 12:27:40;;;;;;;;;;;;;;;15.73;45.80;99035.95;1730819;80;20490;-62
2021/03/30 12:30:13;;;;;;;;;;;;;;;15.80;45.20;99030.75;1728320;82;20784;-63
2021/03/30 12:32:41;;;;;;;;;;;;;;;15.91;45.32;99031.16;1725799;81;20487;-64
2021/03/30 12:35:10;;;;;;;;;;;;;;;16.01;45.40;99030.45;1724447;82;20579;-62
2021/03/30 12:37:38;;;;;;;;;;;;;;;16.07;44.98;99028.13;1731433;81;20731;-63
2021/03/30 12:40:07;;;;;;;;;;;;;;;16.12;44.63;99022.09;1724948;81;20687;-66
2021/03/30 12:42:35;;;;;;;;;;;;;;;16.19;44.77;99020.05;1736181;81;22050;-69
2021/03/30 12:45:05;;;;;;;;;;;;;;;16.27;44.41;99023.59;1728313;81;20503;-69
2021/03/30 12:47:33;;;;;;;;;;;;;;;16.28;43.53;99015.35;1696282;82;20582;-68
2021/03/30 12:50:01;;;;;;;;;;;;;;;16.23;43.21;99013.98;1692877;82;20430;-69
2021/03/30 12:52:29;;;;;;;;;;;;;;;16.25;43.29;99009.77;1692756;82;20634;-67
2021/03/30 12:55:06;;;;;;;;;;;;;;;16.28;43.04;99001.31;1693774;83;21972;-65
2021/03/30 12:57:27;;;;;;;;;;;;;;;16.27;43.10;99006.34;1691504;83;20487;-68
2021/03/30 12:59:57;;;;;;;;;;;;;;;16.27;43.54;98999.19;1688803;82;20215;-66
2021/03/30 13:02:26;;;;;;;;;;;;;;;16.32;43.07;98999.75;1693380;83;20673;-65
2021/03/30 13:04:54;;;;;;;;;;;;;;;16.37;43.38;98999.27;1697924;82;20642;-66
2021/03/30 13:07:21;;;;;;;;;;;;;;;16.47;43.38;98998.56;1703179;82;21718;-68
2021/03/30 13:09:50;;;;;;;;;;;;;;;16.55;43.20;98991.47;1738560;81;20733;-65
2021/03/30 13:12:17;;;;;;;;;;;;;;;16.61;43.24;98987.83;1744631;80;20473;-68
2021/03/30 13:14:49;;;;;;;;;;;;;;;16.58;42.86;98990.15;1739222;80;21951;-69
2021/03/30 13:17:17;;;;;;;;;;;;;;;16.53;43.76;98992.24;1735048;81;20575;-68
2021/03/30 13:19:46;;;;;;;;;;;;;;;16.50;42.63;98986.63;1737843;81;21995;-66
2021/03/30 13:22:14;;;;;;;;;;;;;;;16.45;41.74;98987.92;1737753;80;20584;-68
2021/03/30 13:24:42;;;;;;;;;;;;;;;16.39;41.97;98985.23;1735812;81;20519;-67
2021/03/30 13:27:11;;;;;;;;;;;;;;;16.39;42.40;98979.92;1709701;82;20807;-65
2021/03/30 13:29:40;;;;;;;;;;;;;;;16.39;43.74;98982.58;1721233;82;20484;-67
2021/03/30 13:32:10;;;;;;;;;;;;;;;16.42;42.32;98978.63;1732392;81;22108;-64
2021/03/30 13:34:39;;;;;;;;;;;;;;;16.44;42.77;98975.17;1690605;83;20544;-63
2021/03/30 13:37:07;;;;;;;;;;;;;;;16.44;42.37;98975.17;1698111;83;20389;-66
2021/03/30 13:39:35;;;;;;;;;;;;;;;16.37;42.27;98969.28;1717763;81;20510;-66
2021/03/30 13:42:04;;;;;;;;;;;;;;;16.25;41.86;98970.77;1745043;80;20605;-72
2021/03/30 13:44:32;;;;;;;;;;;;;;;16.14;42.26;98970.39;1709242;82;22167;-68
2021/03/30 13:47:01;;;;;;;;;;;;;;;16.14;42.26;98969.58;1703806;82;20599;-68
2021/03/30 13:49:30;;;;;;;;;;;;;;;16.13;43.35;98966.16;1691776;82;20508;-71
2021/03/30 13:51:58;;;;;;;;;;;;;;;16.18;43.94;98968.05;1683822;84;39237;-71
2021/03/30 13:54:27;;;;;;;;;;;;;;;16.28;44.59;98967.60;1735347;80;20634;-72
2021/03/30 13:56:55;;;;;;;;;;;;;;;16.36;43.55;98961.84;1705870;82;22327;-69
2021/03/30 13:59:23;;;;;;;;;;;;;;;16.42;43.26;98956.08;1730932;80;20557;-66
